sensor_id;sensor_type;location;lat;lon;timestamp;P1;durP1;ratioP1;P2;durP2;ratioP2
29172;SDS011;16223;47.966;-1.616;2024-01-30T00:00:49;11.825;;;7.225;;
29172;SDS011;16223;47.966;-1.616;2024-01-30T00:01:49;18.7375;;;7.425;;
29172;SDS011;16223;47.966;-1.616;2024-01-30T00:02:49;14.6625;;;7.2124999999999995;;
29172;SDS011;16223;47.966;-1.616;2024-01-30T00:03:49;10.149999999999999;;;4.949999999999999;;
29172;SDS011;16223;47.966;-1.616;2024-01-30T00:04:49;16.525000000000002;;;7.9125;;
29172;SDS011;16223;47.966;-1.616;2024-01-30T00:05:49;18.7;;;9.274999999999999;;
29172;SDS011;16223;47.966;-1.616;2024-01-30T00:06:49;21.65;;;7.7124999999999995;;
29172;SDS011;16223;47.966;-1.616;2024-01-30T00:07:49;12.375;;;7.137500000000001;;
29172;SDS011;16223;47.966;-1.616;2024-01-30T00:08:49;12.375;;;8.4375;;
29172;SDS011;16223;47.966;-1.616;2024-01-30T00:09:49;23.1375;;;7.4375;;
29172;SDS011;16223;47.966;-1.616;2024-01-30T00:10:49;19.675;;;7.987499999999999;;
29172;SDS011;16223;47.966;-1.616;2024-01-30T00:11:49;16.4375;;;8.125;;
29172;SDS011;16223;47.966;-1.616;2024-01-30T00:12:49;13.012500000000001;;;6.425;;
29172;SDS011;16223;47.966;-1.616;2024-01-30T00:13:49;24.6375;;;7.875;;
29172;SDS011;16223;47.966;-1.616;2024-01-30T00:14:49;12.975;;;8.25;;
29172;SDS011;16223;47.966;-1.616;2024-01-30T00:15:49;17.4;;;9.8875;;
29172;SDS011;16223;47.966;-1.616;2024-01-30T00:16:49;37.0625;;;8.3625;;
29172;SDS011;16223;47.966;-1.616;2024-01-30T00:17:49;8.1375;;;7.025;;
29172;SDS011;16223;47.966;-1.616;2024-01-30T00:18:49;22.112499999999997;;;7.4125;;
29172;SDS011;16223;47.966;-1.616;2024-01-30T00:19:49;37.825;;;7.6000000000000005;;
29172;SDS011;16223;47.966;-1.616;2024-01-30T00:20:49;25.875;;;9.125;;
29172;SDS011;16223;47.966;-1.616;2024-01-30T00:21:49;25.8375;;;7.45;;
29172;SDS011;16223;47.966;-1.616;2024-01-30T00:22:49;25.075000000000003;;;9.7625;;
29172;SDS011;16223;47.966;-1.616;2024-01-30T00:23:49;12.95;;;6.449999999999999;;
29172;SDS011;16223;47.966;-1.616;2024-01-30T00:24:49;10.299999999999999;;;6.25;;
29172;SDS011;16223;47.966;-1.616;2024-01-30T00:25:49;33.2;;;8.8125;;
29172;SDS011;16223;47.966;-1.616;2024-01-30T00:26:49;15.8;;;7.8875;;
29172;SDS011;16223;47.966;-1.616;2024-01-30T00:27:49;15.124999999999998;;;8.45;;
29172;SDS011;16223;47.966;-1.616;2024-01-30T00:28:49;13.5625;;;7.0625;;
29172;SDS011;16223;47.966;-1.616;2024-01-30T00:29:49;18.8125;;;7.4125;;
29172;SDS011;16223;47.966;-1.616;2024-01-30T00:30:49;13.375;;;8.4125;;
29172;SDS011;16223;47.966;-1.616;2024-01-30T00:31:49;21.925;;;5.800000000000001;;
29172;SDS011;16223;47.966;-1.616;2024-01-30T00:32:49;22.9125;;;6.6125;;
29172;SDS011;16223;47.966;-1.616;2024-01-30T00:33:49;37.975;;;8.8125;;
29172;SDS011;16223;47.966;-1.616;2024-01-30T00:34:49;21.875;;;7.4750000000000005;;
29172;SDS011;16223;47.966;-1.616;2024-01-30T00:35:49;16.1375;;;6.199999999999999;;
29172;SDS011;16223;47.966;-1.616;2024-01-30T00:36:49;31.5;;;8.912500000000001;;
29172;SDS011;16223;47.966;-1.616;2024-01-30T00:37:49;26.762500000000003;;;9.4375;;
29172;SDS011;16223;47.966;-1.616;2024-01-30T00:38:49;21.4375;;;10.225000000000001;;
29172;SDS011;16223;47.966;-1.616;2024-01-30T00:39:49;24.075;;;9.6375;;
29172;SDS011;16223;47.966;-1.616;2024-01-30T00:40:49;12.5625;;;6.2625;;
29172;SDS011;16223;47.966;-1.616;2024-01-30T00:41:49;24.425;;;8.675;;
29172;SDS011;16223;47.966;-1.616;2024-01-30T00:42:49;16.475;;;8.712499999999999;;
29172;SDS011;16223;47.966;-1.616;2024-01-30T00:43:49;19.5875;;;8.075;;
29172;SDS011;16223;47.966;-1.616;2024-01-30T00:44:49;24.112500000000004;;;9.1375;;
29172;SDS011;16223;47.966;-1.616;2024-01-30T00:45:49;14.2375;;;8.35;;
29172;SDS011;16223;47.966;-1.616;2024-01-30T00:46:49;21.9625;;;7.1625000000000005;;
29172;SDS011;16223;47.966;-1.616;2024-01-30T00:47:49;27.200000000000003;;;8.125;;
29172;SDS011;16223;47.966;-1.616;2024-01-30T00:48:49;20.837500000000002;;;8.8;;
29172;SDS011;16223;47.966;-1.616;2024-01-30T00:49:49;15.862499999999999;;;6.0375;;
29172;SDS011;16223;47.966;-1.616;2024-01-30T00:50:49;24.1;;;6.6625;;
29172;SDS011;16223;47.966;-1.616;2024-01-30T00:51:49;12.612499999999999;;;6.175000000000001;;
29172;SDS011;16223;47.966;-1.616;2024-01-30T00:52:49;20.2375;;;8.6375;;
29172;SDS011;16223;47.966;-1.616;2024-01-30T00:53:49;21.7;;;8.7125;;
29172;SDS011;16223;47.966;-1.616;2024-01-30T00:54:49;10.7125;;;7.375;;
29172;SDS011;16223;47.966;-1.616;2024-01-30T00:55:49;18.725;;;8.0625;;
29172;SDS011;16223;47.966;-1.616;2024-01-30T00:56:49;65.58571428571427;;;9.028571428571428;;
29172;SDS011;16223;47.966;-1.616;2024-01-30T00:57:49;37.5625;;;10.1125;;
29172;SDS011;16223;47.966;-1.616;2024-01-30T00:58:49;34.5875;;;9.2625;;
29172;SDS011;16223;47.966;-1.616;2024-01-30T00:59:49;25.375;;;8.512500000000001;;
29172;SDS011;16223;47.966;-1.616;2024-01-30T01:00:49;15.5125;;;8.0625;;
29172;SDS011;16223;47.966;-1.616;2024-01-30T01:01:49;20.950000000000003;;;7.9125;;
29172;SDS011;16223;47.966;-1.616;2024-01-30T01:02:49;17.4;;;7.5125;;
29172;SDS011;16223;47.966;-1.616;2024-01-30T01:03:49;8.575;;;5.725;;
29172;SDS011;16223;47.966;-1.616;2024-01-30T01:04:49;6.0874999999999995;;;3.825;;
29172;SDS011;16223;47.966;-1.616;2024-01-30T01:05:49;29.2375;;;10.05;;
29172;SDS011;16223;47.966;-1.616;2024-01-30T01:06:49;12.275;;;8.075;;
29172;SDS011;16223;47.966;-1.616;2024-01-30T01:07:49;9.987499999999999;;;7.5125;;
29172;SDS011;16223;47.966;-1.616;2024-01-30T01:08:49;13.0375;;;6.8375;;
29172;SDS011;16223;47.966;-1.616;2024-01-30T01:09:49;10.5875;;;8.275;;
29172;SDS011;16223;47.966;-1.616;2024-01-30T01:10:49;22.3375;;;7.824999999999999;;
29172;SDS011;16223;47.966;-1.616;2024-01-30T01:11:49;15.8875;;;6.9375;;
29172;SDS011;16223;47.966;-1.616;2024-01-30T01:12:49;28.712500000000002;;;6.375;;
29172;SDS011;16223;47.966;-1.616;2024-01-30T01:13:49;11.987499999999999;;;7.6625;;
29172;SDS011;16223;47.966;-1.616;2024-01-30T01:14:49;19.112499999999997;;;7.6;;
29172;SDS011;16223;47.966;-1.616;2024-01-30T01:15:49;11.7875;;;7.8374999999999995;;
29172;SDS011;16223;47.966;-1.616;2024-01-30T01:16:49;17.425;;;7.9625;;
29172;SDS011;16223;47.966;-1.616;2024-01-30T01:17:49;18.8125;;;6.6000000000000005;;
29172;SDS011;16223;47.966;-1.616;2024-01-30T01:18:49;9.8375;;;7.175000000000001;;
29172;SDS011;16223;47.966;-1.616;2024-01-30T01:19:49;23.362499999999997;;;10.587500000000002;;
29172;SDS011;16223;47.966;-1.616;2024-01-30T01:20:49;10.7;;;6.9125;;
29172;SDS011;16223;47.966;-1.616;2024-01-30T01:21:49;22.05;;;8.7125;;
29172;SDS011;16223;47.966;-1.616;2024-01-30T01:22:49;22.975;;;8.85;;
29172;SDS011;16223;47.966;-1.616;2024-01-30T01:23:49;16.549999999999997;;;6.637499999999999;;
29172;SDS011;16223;47.966;-1.616;2024-01-30T01:24:49;13.662500000000001;;;6.375;;
29172;SDS011;16223;47.966;-1.616;2024-01-30T01:25:49;11.5;;;6.1625;;
29172;SDS011;16223;47.966;-1.616;2024-01-30T01:26:49;21.7875;;;8.025;;
29172;SDS011;16223;47.966;-1.616;2024-01-30T01:27:49;12.1625;;;8.475;;
29172;SDS011;16223;47.966;-1.616;2024-01-30T01:28:49;10.95;;;6.125;;
29172;SDS011;16223;47.966;-1.616;2024-01-30T01:29:49;14.712499999999999;;;7.175;;
29172;SDS011;16223;47.966;-1.616;2024-01-30T01:30:49;14.0375;;;6.4125;;
29172;SDS011;16223;47.966;-1.616;2024-01-30T01:31:49;22.174999999999997;;;7.475;;
29172;SDS011;16223;47.966;-1.616;2024-01-30T01:32:49;35.5375;;;6.7625;;
29172;SDS011;16223;47.966;-1.616;2024-01-30T01:33:49;16.7875;;;6.925000000000001;;
29172;SDS011;16223;47.966;-1.616;2024-01-30T01:34:49;12.4;;;6.45;;
29172;SDS011;16223;47.966;-1.616;2024-01-30T01:35:49;18.1625;;;7.225;;
29172;SDS011;16223;47.966;-1.616;2024-01-30T01:36:49;31.6;;;7.2875;;
29172;SDS011;16223;47.966;-1.616;2024-01-30T01:37:49;16.45;;;6.725;;
29172;SDS011;16223;47.966;-1.616;2024-01-30T01:38:49;29.112499999999997;;;6.525;;
29172;SDS011;16223;47.966;-1.616;2024-01-30T01:39:49;20.7125;;;6.95;;
29172;SDS011;16223;47.966;-1.616;2024-01-30T01:40:49;8.912500000000001;;;6.0375;;
29172;SDS011;16223;47.966;-1.616;2024-01-30T01:41:49;20.0375;;;6.637499999999999;;
29172;SDS011;16223;47.966;-1.616;2024-01-30T01:42:49;12.5;;;6.775;;
29172;SDS011;16223;47.966;-1.616;2024-01-30T01:43:49;24.5;;;8.075;;
29172;SDS011;16223;47.966;-1.616;2024-01-30T01:44:49;7.3125;;;5.7125;;
29172;SDS011;16223;47.966;-1.616;2024-01-30T01:45:49;13.6;;;6.75;;
29172;SDS011;16223;47.966;-1.616;2024-01-30T01:46:49;14.450000000000001;;;6.0;;
29172;SDS011;16223;47.966;-1.616;2024-01-30T01:47:50;13.387500000000001;;;7.262500000000001;;
29172;SDS011;16223;47.966;-1.616;2024-01-30T01:48:49;20.387500000000003;;;5.85;;
29172;SDS011;16223;47.966;-1.616;2024-01-30T01:49:49;15.5;;;7.5125;;
29172;SDS011;16223;47.966;-1.616;2024-01-30T01:50:49;15.025;;;6.3125;;
29172;SDS011;16223;47.966;-1.616;2024-01-30T01:51:49;17.3;;;7.75;;
29172;SDS011;16223;47.966;-1.616;2024-01-30T01:52:49;17.925;;;7.3;;
29172;SDS011;16223;47.966;-1.616;2024-01-30T01:53:49;16.9;;;6.75;;
29172;SDS011;16223;47.966;-1.616;2024-01-30T01:54:49;17.6125;;;7.775;;
29172;SDS011;16223;47.966;-1.616;2024-01-30T01:55:49;20.4375;;;7.0249999999999995;;
29172;SDS011;16223;47.966;-1.616;2024-01-30T01:56:49;21.5;;;7.5;;
29172;SDS011;16223;47.966;-1.616;2024-01-30T01:57:49;24.075000000000003;;;7.6875;;
29172;SDS011;16223;47.966;-1.616;2024-01-30T01:58:49;26.049999999999997;;;8.425;;
29172;SDS011;16223;47.966;-1.616;2024-01-30T01:59:49;25.875;;;8.337499999999999;;
29172;SDS011;16223;47.966;-1.616;2024-01-30T02:00:49;12.475;;;7.3125;;
29172;SDS011;16223;47.966;-1.616;2024-01-30T02:01:49;15.9125;;;6.9875;;
29172;SDS011;16223;47.966;-1.616;2024-01-30T02:02:49;7.125;;;5.4875;;
29172;SDS011;16223;47.966;-1.616;2024-01-30T02:03:49;32.5125;;;7.8500000000000005;;
29172;SDS011;16223;47.966;-1.616;2024-01-30T02:04:49;11.825;;;5.4;;
29172;SDS011;16223;47.966;-1.616;2024-01-30T02:05:49;10.037500000000001;;;6.85;;
29172;SDS011;16223;47.966;-1.616;2024-01-30T02:06:49;18.7125;;;6.35;;
29172;SDS011;16223;47.966;-1.616;2024-01-30T02:07:49;7.4624999999999995;;;4.875;;
29172;SDS011;16223;47.966;-1.616;2024-01-30T02:08:49;11.287500000000001;;;5.9;;
29172;SDS011;16223;47.966;-1.616;2024-01-30T02:09:49;14.925;;;7.125;;
29172;SDS011;16223;47.966;-1.616;2024-01-30T02:10:49;8.9125;;;3.75;;
29172;SDS011;16223;47.966;-1.616;2024-01-30T02:11:49;12.325;;;5.6000000000000005;;
29172;SDS011;16223;47.966;-1.616;2024-01-30T02:12:49;6.9875;;;4.2375;;
29172;SDS011;16223;47.966;-1.616;2024-01-30T02:13:49;7.2124999999999995;;;4.7250000000000005;;
29172;SDS011;16223;47.966;-1.616;2024-01-30T02:14:49;10.212499999999999;;;4.5625;;
29172;SDS011;16223;47.966;-1.616;2024-01-30T02:15:49;6.887499999999999;;;2.8874999999999997;;
29172;SDS011;16223;47.966;-1.616;2024-01-30T02:16:49;5.025;;;2.8125;;
29172;SDS011;16223;47.966;-1.616;2024-01-30T02:17:49;4.35;;;2.65;;
29172;SDS011;16223;47.966;-1.616;2024-01-30T02:18:49;3.725;;;1.5875;;
29172;SDS011;16223;47.966;-1.616;2024-01-30T02:19:49;4.1625;;;3.525;;
29172;SDS011;16223;47.966;-1.616;2024-01-30T02:20:49;2.5625;;;2.1625;;
29172;SDS011;16223;47.966;-1.616;2024-01-30T02:21:49;4.7749999999999995;;;1.8125;;
29172;SDS011;16223;47.966;-1.616;2024-01-30T02:22:49;5.125;;;1.6375000000000002;;
29172;SDS011;16223;47.966;-1.616;2024-01-30T02:23:49;8.4625;;;3.3;;
29172;SDS011;16223;47.966;-1.616;2024-01-30T02:24:49;6.2250000000000005;;;2.075;;
29172;SDS011;16223;47.966;-1.616;2024-01-30T02:25:49;15.924999999999999;;;2.125;;
29172;SDS011;16223;47.966;-1.616;2024-01-30T02:26:49;6.0;;;3.575;;
29172;SDS011;16223;47.966;-1.616;2024-01-30T02:27:49;4.3374999999999995;;;2.225;;
29172;SDS011;16223;47.966;-1.616;2024-01-30T02:28:49;2.925;;;1.8250000000000002;;
29172;SDS011;16223;47.966;-1.616;2024-01-30T02:29:49;14.524999999999999;;;2.5374999999999996;;
29172;SDS011;16223;47.966;-1.616;2024-01-30T02:30:49;5.3625;;;2.2;;
29172;SDS011;16223;47.966;-1.616;2024-01-30T02:31:49;9.2375;;;3.5625;;
29172;SDS011;16223;47.966;-1.616;2024-01-30T02:32:49;7.625;;;3.2125000000000004;;
29172;SDS011;16223;47.966;-1.616;2024-01-30T02:33:49;2.3875;;;1.625;;
29172;SDS011;16223;47.966;-1.616;2024-01-30T02:34:49;16.525;;;1.6999999999999997;;
29172;SDS011;16223;47.966;-1.616;2024-01-30T02:35:49;4.75;;;1.4500000000000002;;
29172;SDS011;16223;47.966;-1.616;2024-01-30T02:36:49;6.4750000000000005;;;1.6749999999999998;;
29172;SDS011;16223;47.966;-1.616;2024-01-30T02:37:49;2.55;;;1.1;;
29172;SDS011;16223;47.966;-1.616;2024-01-30T02:38:49;4.7125;;;1.6;;
29172;SDS011;16223;47.966;-1.616;2024-01-30T02:39:49;2.6875;;;1.4875;;
29172;SDS011;16223;47.966;-1.616;2024-01-30T02:40:49;2.075;;;1.6375;;
29172;SDS011;16223;47.966;-1.616;2024-01-30T02:41:49;6.2;;;1.5;;
29172;SDS011;16223;47.966;-1.616;2024-01-30T02:42:49;4.550000000000001;;;1.8125;;
29172;SDS011;16223;47.966;-1.616;2024-01-30T02:43:49;4.25;;;1.1875;;
29172;SDS011;16223;47.966;-1.616;2024-01-30T02:44:49;4.7749999999999995;;;1.4625;;
29172;SDS011;16223;47.966;-1.616;2024-01-30T02:45:49;2.175;;;1.4875;;
29172;SDS011;16223;47.966;-1.616;2024-01-30T02:46:49;3.5625;;;0.6375000000000001;;
29172;SDS011;16223;47.966;-1.616;2024-01-30T02:47:49;1.225;;;1.175;;
29172;SDS011;16223;47.966;-1.616;2024-01-30T02:48:49;6.35;;;1.225;;
29172;SDS011;16223;47.966;-1.616;2024-01-30T02:49:49;1.5750000000000002;;;0.775;;
29172;SDS011;16223;47.966;-1.616;2024-01-30T02:50:49;1.9625;;;1.2875;;
29172;SDS011;16223;47.966;-1.616;2024-01-30T02:51:49;1.0125;;;0.625;;
29172;SDS011;16223;47.966;-1.616;2024-01-30T02:52:49;4.4625;;;1.4;;
29172;SDS011;16223;47.966;-1.616;2024-01-30T02:53:49;2.125;;;0.5;;
29172;SDS011;16223;47.966;-1.616;2024-01-30T02:54:49;0.875;;;0.675;;
29172;SDS011;16223;47.966;-1.616;2024-01-30T02:55:49;3.5374999999999996;;;1.0625;;
29172;SDS011;16223;47.966;-1.616;2024-01-30T02:56:49;0.375;;;0.375;;
29172;SDS011;16223;47.966;-1.616;2024-01-30T02:57:49;0.5;;;0.5;;
29172;SDS011;16223;47.966;-1.616;2024-01-30T02:58:49;6.7625;;;1.0375;;
29172;SDS011;16223;47.966;-1.616;2024-01-30T02:59:49;0.575;;;0.55;;
29172;SDS011;16223;47.966;-1.616;2024-01-30T03:00:49;0.47500000000000003;;;0.4375;;
29172;SDS011;16223;47.966;-1.616;2024-01-30T03:01:49;1.1375000000000002;;;0.9;;
29172;SDS011;16223;47.966;-1.616;2024-01-30T03:02:49;3.525;;;2.1500000000000004;;
29172;SDS011;16223;47.966;-1.616;2024-01-30T03:03:49;1.25;;;0.32500000000000007;;
29172;SDS011;16223;47.966;-1.616;2024-01-30T03:04:49;2.5374999999999996;;;2.075;;
29172;SDS011;16223;47.966;-1.616;2024-01-30T03:05:49;2.3125;;;0.4875;;
29172;SDS011;16223;47.966;-1.616;2024-01-30T03:06:49;0.8875;;;0.75;;
29172;SDS011;16223;47.966;-1.616;2024-01-30T03:07:49;0.8875;;;0.7;;
29172;SDS011;16223;47.966;-1.616;2024-01-30T03:08:49;0.3125;;;0.3125;;
29172;SDS011;16223;47.966;-1.616;2024-01-30T03:09:49;2.95;;;0.8250000000000001;;
29172;SDS011;16223;47.966;-1.616;2024-01-30T03:10:49;1.05;;;0.6000000000000001;;
29172;SDS011;16223;47.966;-1.616;2024-01-30T03:11:49;0.8125;;;0.3375;;
29172;SDS011;16223;47.966;-1.616;2024-01-30T03:12:49;0.55;;;0.4875;;
29172;SDS011;16223;47.966;-1.616;2024-01-30T03:13:49;1.9874999999999998;;;1.025;;
29172;SDS011;16223;47.966;-1.616;2024-01-30T03:14:49;0.55;;;0.325;;
29172;SDS011;16223;47.966;-1.616;2024-01-30T03:15:49;0.8500000000000001;;;0.36250000000000004;;
29172;SDS011;16223;47.966;-1.616;2024-01-30T03:16:49;1.6375000000000002;;;0.525;;
29172;SDS011;16223;47.966;-1.616;2024-01-30T03:17:49;6.050000000000001;;;0.825;;
29172;SDS011;16223;47.966;-1.616;2024-01-30T03:18:49;0.5375;;;0.5375;;
29172;SDS011;16223;47.966;-1.616;2024-01-30T03:19:49;0.45;;;0.45;;
29172;SDS011;16223;47.966;-1.616;2024-01-30T03:20:49;0.5;;;0.4875;;
29172;SDS011;16223;47.966;-1.616;2024-01-30T03:21:49;1.125;;;0.7;;
29172;SDS011;16223;47.966;-1.616;2024-01-30T03:22:49;3.5999999999999996;;;0.7125;;
29172;SDS011;16223;47.966;-1.616;2024-01-30T03:23:49;1.6125000000000003;;;0.6375;;
29172;SDS011;16223;47.966;-1.616;2024-01-30T03:24:49;0.32499999999999996;;;0.2;;
29172;SDS011;16223;47.966;-1.616;2024-01-30T03:25:49;2.2875;;;1.6749999999999998;;
29172;SDS011;16223;47.966;-1.616;2024-01-30T03:26:49;2.7;;;1.4500000000000002;;
29172;SDS011;16223;47.966;-1.616;2024-01-30T03:27:49;5.2875;;;0.475;;
29172;SDS011;16223;47.966;-1.616;2024-01-30T03:28:49;0.7250000000000001;;;0.47500000000000003;;
29172;SDS011;16223;47.966;-1.616;2024-01-30T03:29:49;0.6625000000000001;;;0.6625000000000001;;
29172;SDS011;16223;47.966;-1.616;2024-01-30T03:30:49;12.025;;;1.0999999999999999;;
29172;SDS011;16223;47.966;-1.616;2024-01-30T03:31:49;6.8625;;;1.725;;
29172;SDS011;16223;47.966;-1.616;2024-01-30T03:32:49;7.512499999999999;;;1.5625;;
29172;SDS011;16223;47.966;-1.616;2024-01-30T03:33:49;2.1;;;0.5875;;
29172;SDS011;16223;47.966;-1.616;2024-01-30T03:34:49;0.5625;;;0.45;;
29172;SDS011;16223;47.966;-1.616;2024-01-30T03:35:49;0.4625;;;0.41250000000000003;;
29172;SDS011;16223;47.966;-1.616;2024-01-30T03:36:49;15.15;;;1.35;;
29172;SDS011;16223;47.966;-1.616;2024-01-30T03:37:49;0.4;;;0.4;;
29172;SDS011;16223;47.966;-1.616;2024-01-30T03:38:49;1.3875000000000002;;;0.7124999999999999;;
29172;SDS011;16223;47.966;-1.616;2024-01-30T03:39:49;0.5375;;;0.42500000000000004;;
29172;SDS011;16223;47.966;-1.616;2024-01-30T03:40:49;1.225;;;0.47500000000000003;;
29172;SDS011;16223;47.966;-1.616;2024-01-30T03:41:49;1.8874999999999997;;;0.4;;
29172;SDS011;16223;47.966;-1.616;2024-01-30T03:42:49;2.7;;;0.6;;
29172;SDS011;16223;47.966;-1.616;2024-01-30T03:43:49;0.33749999999999997;;;0.32499999999999996;;
29172;SDS011;16223;47.966;-1.616;2024-01-30T03:44:49;0.55;;;0.5375;;
29172;SDS011;16223;47.966;-1.616;2024-01-30T03:45:49;0.6625;;;0.325;;
29172;SDS011;16223;47.966;-1.616;2024-01-30T03:46:49;2.0875000000000004;;;1.125;;
29172;SDS011;16223;47.966;-1.616;2024-01-30T03:47:49;0.625;;;0.3875;;
29172;SDS011;16223;47.966;-1.616;2024-01-30T03:48:49;0.925;;;0.44999999999999996;;
29172;SDS011;16223;47.966;-1.616;2024-01-30T03:49:49;0.475;;;0.475;;
29172;SDS011;16223;47.966;-1.616;2024-01-30T03:50:49;4.4;;;0.8625;;
29172;SDS011;16223;47.966;-1.616;2024-01-30T03:51:49;5.5125;;;0.6;;
29172;SDS011;16223;47.966;-1.616;2024-01-30T03:52:49;4.4375;;;1.0625;;
29172;SDS011;16223;47.966;-1.616;2024-01-30T03:53:49;0.55;;;0.3125;;
29172;SDS011;16223;47.966;-1.616;2024-01-30T03:54:49;3.1375;;;0.2375;;
29172;SDS011;16223;47.966;-1.616;2024-01-30T03:55:49;0.3125;;;0.3125;;
29172;SDS011;16223;47.966;-1.616;2024-01-30T03:56:49;3.7125000000000004;;;0.55;;
29172;SDS011;16223;47.966;-1.616;2024-01-30T03:57:49;0.4125;;;0.4125;;
29172;SDS011;16223;47.966;-1.616;2024-01-30T03:58:49;6.0;;;1.025;;
29172;SDS011;16223;47.966;-1.616;2024-01-30T03:59:49;0.5125;;;0.5125;;
29172;SDS011;16223;47.966;-1.616;2024-01-30T04:00:49;0.2375;;;0.22500000000000003;;
29172;SDS011;16223;47.966;-1.616;2024-01-30T04:01:49;1.575;;;0.7625;;
29172;SDS011;16223;47.966;-1.616;2024-01-30T04:02:49;3.425;;;0.7625;;
29172;SDS011;16223;47.966;-1.616;2024-01-30T04:03:49;0.925;;;0.4875;;
29172;SDS011;16223;47.966;-1.616;2024-01-30T04:04:49;0.3;;;0.3;;
29172;SDS011;16223;47.966;-1.616;2024-01-30T04:05:49;1.875;;;0.7749999999999999;;
29172;SDS011;16223;47.966;-1.616;2024-01-30T04:06:49;0.6499999999999999;;;0.6499999999999999;;
29172;SDS011;16223;47.966;-1.616;2024-01-30T04:07:49;0.4125;;;0.4125;;
29172;SDS011;16223;47.966;-1.616;2024-01-30T04:08:49;3.5375;;;0.7125;;
29172;SDS011;16223;47.966;-1.616;2024-01-30T04:09:49;1.325;;;0.425;;
29172;SDS011;16223;47.966;-1.616;2024-01-30T04:10:49;1.1;;;0.5249999999999999;;
29172;SDS011;16223;47.966;-1.616;2024-01-30T04:11:49;1.5625;;;1.125;;
29172;SDS011;16223;47.966;-1.616;2024-01-30T04:12:49;0.42500000000000004;;;0.2875;;
29172;SDS011;16223;47.966;-1.616;2024-01-30T04:13:49;3.4749999999999996;;;0.7125;;
29172;SDS011;16223;47.966;-1.616;2024-01-30T04:14:49;1.9000000000000001;;;1.2625;;
29172;SDS011;16223;47.966;-1.616;2024-01-30T04:15:49;0.3875;;;0.36250000000000004;;
29172;SDS011;16223;47.966;-1.616;2024-01-30T04:16:49;1.2375;;;0.9125000000000001;;
29172;SDS011;16223;47.966;-1.616;2024-01-30T04:17:49;4.949999999999999;;;1.2000000000000002;;
29172;SDS011;16223;47.966;-1.616;2024-01-30T04:18:49;2.5374999999999996;;;0.7375;;
29172;SDS011;16223;47.966;-1.616;2024-01-30T04:19:49;0.75;;;0.5125000000000001;;
29172;SDS011;16223;47.966;-1.616;2024-01-30T04:20:49;9.325;;;0.7250000000000001;;
29172;SDS011;16223;47.966;-1.616;2024-01-30T04:21:49;1.2375;;;0.625;;
29172;SDS011;16223;47.966;-1.616;2024-01-30T04:22:49;2.2125;;;1.1625;;
29172;SDS011;16223;47.966;-1.616;2024-01-30T04:23:50;0.5125;;;0.4375;;
29172;SDS011;16223;47.966;-1.616;2024-01-30T04:24:49;0.8125;;;0.8125;;
29172;SDS011;16223;47.966;-1.616;2024-01-30T04:25:49;10.9875;;;0.8875000000000001;;
29172;SDS011;16223;47.966;-1.616;2024-01-30T04:26:49;1.7375;;;0.5874999999999999;;
29172;SDS011;16223;47.966;-1.616;2024-01-30T04:27:49;0.6000000000000001;;;0.5874999999999999;;
29172;SDS011;16223;47.966;-1.616;2024-01-30T04:28:49;7.0;;;1.075;;
29172;SDS011;16223;47.966;-1.616;2024-01-30T04:29:49;3.65;;;1.125;;
29172;SDS011;16223;47.966;-1.616;2024-01-30T04:30:49;0.8250000000000001;;;0.575;;
29172;SDS011;16223;47.966;-1.616;2024-01-30T04:31:49;0.8375;;;0.6875;;
29172;SDS011;16223;47.966;-1.616;2024-01-30T04:32:49;0.65;;;0.55;;
29172;SDS011;16223;47.966;-1.616;2024-01-30T04:33:49;1.9375;;;0.47500000000000003;;
29172;SDS011;16223;47.966;-1.616;2024-01-30T04:34:49;1.6875;;;0.6375;;
29172;SDS011;16223;47.966;-1.616;2024-01-30T04:35:49;8.825;;;1.5375;;
29172;SDS011;16223;47.966;-1.616;2024-01-30T04:36:49;0.625;;;0.4125;;
29172;SDS011;16223;47.966;-1.616;2024-01-30T04:37:49;7.6875;;;0.9749999999999999;;
29172;SDS011;16223;47.966;-1.616;2024-01-30T04:38:49;0.9500000000000001;;;0.42500000000000004;;
29172;SDS011;16223;47.966;-1.616;2024-01-30T04:39:49;0.7875000000000001;;;0.7625;;
29172;SDS011;16223;47.966;-1.616;2024-01-30T04:40:49;1.2625;;;0.4625;;
29172;SDS011;16223;47.966;-1.616;2024-01-30T04:41:49;0.6875;;;0.6625;;
29172;SDS011;16223;47.966;-1.616;2024-01-30T04:42:49;0.575;;;0.275;;
29172;SDS011;16223;47.966;-1.616;2024-01-30T04:43:49;0.5625;;;0.45;;
29172;SDS011;16223;47.966;-1.616;2024-01-30T04:44:49;1.225;;;0.9375;;
29172;SDS011;16223;47.966;-1.616;2024-01-30T04:45:49;2.55;;;0.5874999999999999;;
29172;SDS011;16223;47.966;-1.616;2024-01-30T04:46:49;0.3;;;0.3;;
29172;SDS011;16223;47.966;-1.616;2024-01-30T04:47:49;1.3375000000000001;;;0.3625;;
29172;SDS011;16223;47.966;-1.616;2024-01-30T04:48:49;9.65;;;0.6625;;
29172;SDS011;16223;47.966;-1.616;2024-01-30T04:49:49;4.512499999999999;;;0.7625;;
29172;SDS011;16223;47.966;-1.616;2024-01-30T04:50:49;0.1375;;;0.1375;;
29172;SDS011;16223;47.966;-1.616;2024-01-30T04:51:49;1.0375;;;1.0125000000000002;;
29172;SDS011;16223;47.966;-1.616;2024-01-30T04:52:49;1.7625;;;0.625;;
29172;SDS011;16223;47.966;-1.616;2024-01-30T04:53:49;0.39999999999999997;;;0.39999999999999997;;
29172;SDS011;16223;47.966;-1.616;2024-01-30T04:54:49;0.4875;;;0.475;;
29172;SDS011;16223;47.966;-1.616;2024-01-30T04:55:49;8.162500000000001;;;1.1625;;
29172;SDS011;16223;47.966;-1.616;2024-01-30T04:56:49;2.4125;;;0.5375;;
29172;SDS011;16223;47.966;-1.616;2024-01-30T04:57:49;0.425;;;0.425;;
29172;SDS011;16223;47.966;-1.616;2024-01-30T04:58:49;1.8625;;;0.9625000000000001;;
29172;SDS011;16223;47.966;-1.616;2024-01-30T04:59:49;0.9375;;;0.5625;;
29172;SDS011;16223;47.966;-1.616;2024-01-30T05:00:49;11.274999999999999;;;0.8;;
29172;SDS011;16223;47.966;-1.616;2024-01-30T05:01:49;2.975;;;0.7875000000000001;;
29172;SDS011;16223;47.966;-1.616;2024-01-30T05:02:49;1.5374999999999999;;;0.6124999999999999;;
29172;SDS011;16223;47.966;-1.616;2024-01-30T05:03:49;2.65;;;1.3;;
29172;SDS011;16223;47.966;-1.616;2024-01-30T05:04:49;0.45;;;0.45;;
29172;SDS011;16223;47.966;-1.616;2024-01-30T05:05:49;1.4875;;;0.5375;;
29172;SDS011;16223;47.966;-1.616;2024-01-30T05:06:49;2.2875;;;0.5875;;
29172;SDS011;16223;47.966;-1.616;2024-01-30T05:07:49;1.2625;;;0.49999999999999994;;
29172;SDS011;16223;47.966;-1.616;2024-01-30T05:08:49;1.375;;;0.5625;;
29172;SDS011;16223;47.966;-1.616;2024-01-30T05:09:49;0.1625;;;0.1625;;
29172;SDS011;16223;47.966;-1.616;2024-01-30T05:10:49;0.275;;;0.275;;
29172;SDS011;16223;47.966;-1.616;2024-01-30T05:11:49;5.7125;;;0.625;;
29172;SDS011;16223;47.966;-1.616;2024-01-30T05:12:49;0.95;;;0.6375;;
29172;SDS011;16223;47.966;-1.616;2024-01-30T05:13:49;1.75;;;0.46249999999999997;;